Time;durP1;ratioP1;P1;durP2;ratioP2;P2;SDS_P1;SDS_P2;PMS_P1;PMS_P2;Temp;Humidity;BMP_temperature;BMP_pressure;BME280_temperature;BME280_humidity;BME280_pressure;Samples;Min_cycle;Max_cycle;Signal;HPM_P1;HPM_P2
2024/01/17 00:02:07;;;;;;;9.77;7.32;;;;;;;2.51;100.00;99587.19;5012551;28;20041;-76
2024/01/17 00:04:33;;;;;;;11.00;7.85;;;;;;;2.29;100.00;99578.88;5030185;28;20060;-75
2024/01/17 00:06:58;;;;;;;11.90;8.70;;;;;;;2.24;100.00;99594.75;5030201;28;20087;-76
2024/01/17 00:09:24;;;;;;;12.55;9.40;;;;;;;2.00;100.00;99570.53;5029808;28;20028;-75
2024/01/17 00:11:52;;;;;;;12.30;9.20;;;;;;;1.68;100.00;99575.53;5011601;28;20463;-75
2024/01/17 00:14:18;;;;;;;13.30;9.50;;;;;;;1.88;100.00;99549.66;5012659;28;20057;-75
2024/01/17 00:16:44;;;;;;;17.23;11.00;;;;;;;1.97;100.00;99612.31;5029613;28;20040;-76
2024/01/17 00:19:10;;;;;;;21.48;12.65;;;;;;;2.05;100.00;99598.09;5028968;28;20094;-76
2024/01/17 00:21:35;;;;;;;22.92;12.82;;;;;;;1.80;100.00;99576.38;5028567;28;20091;-76
2024/01/17 00:24:01;;;;;;;18.13;11.60;;;;;;;2.27;100.00;99554.63;5029402;28;20151;-75
2024/01/17 00:26:26;;;;;;;14.35;10.07;;;;;;;2.15;100.00;99497.00;5028868;28;20037;-75
2024/01/17 00:28:52;;;;;;;12.38;9.60;;;;;;;2.25;100.00;99449.34;5012079;28;20472;-76
2024/01/17 00:31:18;;;;;;;14.23;9.57;;;;;;;2.20;100.00;99377.50;5027860;28;20044;-74
2024/01/17 00:33:43;;;;;;;13.85;9.80;;;;;;;2.47;100.00;99377.38;5028185;28;20033;-76
2024/01/17 00:36:10;;;;;;;14.38;9.57;;;;;;;2.10;100.00;99389.22;5010095;28;20122;-75
2024/01/17 00:38:36;;;;;;;16.80;10.13;;;;;;;1.76;100.00;99370.16;5010145;28;20037;-76
2024/01/17 00:41:05;;;;;;;12.82;9.55;;;;;;;1.71;100.00;99365.16;5011871;28;20033;-76
2024/01/17 00:43:30;;;;;;;13.10;9.43;;;;;;;1.82;100.00;99396.84;5028345;28;20072;-76
2024/01/17 00:45:55;;;;;;;11.88;9.55;;;;;;;1.77;100.00;99420.25;5011878;28;20571;-76
2024/01/17 00:48:21;;;;;;;14.35;10.23;;;;;;;1.30;100.00;99406.94;5029222;28;20033;-75
2024/01/17 00:50:46;;;;;;;14.70;10.30;;;;;;;1.52;100.00;99441.16;5029525;28;20116;-76
2024/01/17 00:53:12;;;;;;;17.73;12.02;;;;;;;1.17;100.00;99457.00;5028687;28;20522;-75
2024/01/17 00:55:37;;;;;;;18.92;13.07;;;;;;;1.18;100.00;99393.59;5012008;28;20171;-76
2024/01/17 00:58:03;;;;;;;17.23;12.50;;;;;;;1.24;100.00;99383.59;5011753;28;20484;-76
2024/01/17 01:00:28;;;;;;;16.73;11.32;;;;;;;1.35;100.00;99440.31;5029406;28;20509;-75
2024/01/17 01:02:54;;;;;;;14.73;10.60;;;;;;;1.20;100.00;99400.28;5012079;28;20029;-76
2024/01/17 01:05:19;;;;;;;14.15;10.27;;;;;;;1.36;100.00;99428.63;5011447;28;20021;-76
2024/01/17 01:07:47;;;;;;;13.63;10.18;;;;;;;1.33;100.00;99444.47;5028699;28;20025;-75
2024/01/17 01:10:13;;;;;;;13.43;9.73;;;;;;;1.50;100.00;99370.22;5028341;28;20030;-74
2024/01/17 01:12:38;;;;;;;12.98;9.98;;;;;;;1.60;100.00;99398.56;5011581;28;20036;-76
2024/01/17 01:15:05;;;;;;;13.70;9.82;;;;;;;1.17;100.00;99399.44;5028791;28;20060;-75
2024/01/17 01:17:30;;;;;;;15.65;10.90;;;;;;;1.31;100.00;99448.66;5009846;28;20042;-76
2024/01/17 01:19:56;;;;;;;15.57;10.45;;;;;;;1.46;100.00;99446.16;5029386;28;20392;-76
2024/01/17 01:22:22;;;;;;;12.98;9.52;;;;;;;1.63;100.00;99426.94;5010395;28;20037;-76
2024/01/17 01:24:47;;;;;;;11.38;7.97;;;;;;;1.34;100.00;99351.03;5011750;28;20124;-76
2024/01/17 01:27:13;;;;;;;12.77;8.65;;;;;;;1.89;100.00;99411.00;5012162;28;20124;-76
2024/01/17 01:29:38;;;;;;;12.48;8.70;;;;;;;1.83;100.00;99411.03;5032571;28;20037;-76
2024/01/17 01:32:04;;;;;;;12.15;8.25;;;;;;;1.79;100.00;99387.66;5032959;28;20391;-75
2024/01/17 01:34:30;;;;;;;11.73;8.43;;;;;;;1.39;100.00;99384.41;5032429;28;20064;-76
2024/01/17 01:36:55;;;;;;;11.20;8.63;;;;;;;1.55;100.00;99332.63;5015028;28;20124;-75
2024/01/17 01:39:21;;;;;;;11.13;8.55;;;;;;;1.62;100.00;99377.66;5032354;28;20063;-76
2024/01/17 01:41:46;;;;;;;10.98;8.40;;;;;;;1.68;100.00;99384.38;5032182;28;20038;-76
2024/01/17 01:44:12;;;;;;;10.75;8.13;;;;;;;1.55;100.00;99343.47;5032418;28;20037;-75
2024/01/17 01:46:38;;;;;;;12.50;8.60;;;;;;;1.71;100.00;99365.16;5014942;28;20030;-76
2024/01/17 01:49:03;;;;;;;11.10;8.25;;;;;;;1.55;100.00;99398.56;5013546;28;20037;-75
2024/01/17 01:51:29;;;;;;;12.57;8.82;;;;;;;1.47;100.00;99420.28;5031782;28;20419;-75
2024/01/17 01:53:57;;;;;;;10.88;8.20;;;;;;;1.37;100.00;99428.63;5031826;28;20029;-72
2024/01/17 01:56:27;;;;;;;12.43;9.00;;;;;;;1.47;100.00;99414.44;5032740;28;20117;-75
2024/01/17 01:58:54;;;;;;;12.10;8.30;;;;;;;0.85;100.00;99331.91;5031211;28;20068;-75
2024/01/17 02:01:20;;;;;;;11.65;8.68;;;;;;;1.06;100.00;99401.94;5014378;28;20097;-75
2024/01/17 02:03:47;;;;;;;12.45;8.98;;;;;;;1.39;100.00;99419.44;5032994;28;20117;-75
2024/01/17 02:06:13;;;;;;;12.73;8.63;;;;;;;1.47;100.00;99407.75;5031825;28;20045;-75
2024/01/17 02:08:40;;;;;;;13.63;9.25;;;;;;;1.43;100.00;99410.25;5014342;28;20028;-76
2024/01/17 02:11:06;;;;;;;13.48;8.82;;;;;;;1.06;100.00;99396.09;5031866;28;20041;-75
2024/01/17 02:13:32;;;;;;;12.35;9.15;;;;;;;1.49;100.00;99381.06;5014587;28;20103;-76
2024/01/17 02:15:59;;;;;;;12.93;9.35;;;;;;;1.51;100.00;99379.38;5014469;28;20032;-74
2024/01/17 02:18:25;;;;;;;13.02;9.27;;;;;;;1.69;100.00;99359.31;5031921;28;20021;-73
2024/01/17 02:20:50;;;;;;;14.43;9.73;;;;;;;1.42;100.00;99386.91;5013532;28;20032;-74
2024/01/17 02:23:28;;;;;;;13.55;9.15;;;;;;;1.43;100.00;99400.25;5031270;28;20451;-74
2024/01/17 02:25:56;;;;;;;12.43;9.40;;;;;;;1.21;100.00;99428.66;5010476;28;20415;-75
2024/01/17 02:28:23;;;;;;;13.82;8.95;;;;;;;1.41;100.00;99406.91;5013734;28;20099;-76
2024/01/17 02:30:49;;;;;;;12.07;8.77;;;;;;;0.72;100.00;99418.56;5031755;28;20030;-75
2024/01/17 02:33:14;;;;;;;13.65;9.10;;;;;;;1.34;100.00;99430.31;5014074;28;20086;-75
2024/01/17 02:35:41;;;;;;;12.93;9.70;;;;;;;0.58;100.00;99394.34;5031599;28;20034;-74
2024/01/17 02:38:07;;;;;;;13.95;9.68;;;;;;;0.83;100.00;99416.09;4996681;28;20029;-74
2024/01/17 02:40:32;;;;;;;12.80;9.38;;;;;;;0.71;100.00;99443.56;5030834;28;20163;-74
2024/01/17 02:42:57;;;;;;;16.10;9.70;;;;;;;1.18;100.00;99423.63;5031362;28;20099;-75
2024/01/17 02:45:23;;;;;;;15.75;10.23;;;;;;;0.65;100.00;99426.88;5013328;28;20040;-75
2024/01/17 02:47:48;;;;;;;15.25;10.15;;;;;;;1.22;100.00;99443.66;5030427;28;20513;-74
2024/01/17 02:50:17;;;;;;;16.15;10.80;;;;;;;0.78;100.00;99417.75;5030527;28;20048;-74
2024/01/17 02:52:46;;;;;;;16.35;11.40;;;;;;;0.92;100.00;99436.09;5030798;28;20461;-75
2024/01/17 02:55:12;;;;;;;16.65;11.63;;;;;;;0.84;100.00;99426.09;5030882;28;20068;-74
2024/01/17 02:57:38;;;;;;;15.10;11.77;;;;;;;1.07;100.00;99415.28;5013583;28;20132;-75
2024/01/17 03:00:05;;;;;;;16.50;11.48;;;;;;;1.21;100.00;99434.47;5030753;28;20033;-75
2024/01/17 03:02:31;;;;;;;16.70;11.40;;;;;;;0.68;100.00;99431.91;5013281;28;20041;-73
2024/01/17 03:04:57;;;;;;;14.80;11.02;;;;;;;0.93;100.00;99470.31;5031004;28;20078;-75
2024/01/17 03:07:23;;;;;;;16.02;10.40;;;;;;;1.04;100.00;99472.81;5031249;28;20033;-75
2024/01/17 03:09:49;;;;;;;14.88;10.75;;;;;;;0.90;100.00;99497.81;5013163;28;20488;-75
2024/01/17 03:12:14;;;;;;;14.60;10.68;;;;;;;0.94;100.00;99512.00;5031218;28;20087;-75
2024/01/17 03:14:40;;;;;;;14.70;10.85;;;;;;;0.39;100.00;99473.47;5012606;28;20500;-74
2024/01/17 03:17:05;;;;;;;14.43;10.10;;;;;;;1.06;100.00;99528.69;5029016;28;20025;-74
2024/01/17 03:19:30;;;;;;;13.07;9.45;;;;;;;0.95;100.00;99515.34;5030334;28;20124;-74
2024/01/17 03:21:56;;;;;;;15.20;9.65;;;;;;;0.83;100.00;99491.94;5012853;28;20040;-74
2024/01/17 03:24:22;;;;;;;12.90;9.15;;;;;;;0.88;100.00;99555.34;5009615;28;20492;-74
2024/01/17 03:26:48;;;;;;;13.75;9.38;;;;;;;0.80;100.00;99529.47;5008239;28;20109;-73
2024/01/17 03:29:13;;;;;;;13.35;9.48;;;;;;;0.50;100.00;99571.81;5009863;28;20100;-74
2024/01/17 03:31:39;;;;;;;14.18;9.90;;;;;;;0.68;100.00;99536.06;5010130;28;20029;-73
2024/01/17 03:34:04;;;;;;;13.30;9.73;;;;;;;0.89;100.00;99533.66;5010750;28;20038;-74
2024/01/17 03:36:30;;;;;;;15.38;10.68;;;;;;;0.79;100.00;99559.47;5009813;28;20057;-74
2024/01/17 03:38:55;;;;;;;15.80;10.55;;;;;;;0.59;100.00;99544.38;5008898;28;20026;-74
2024/01/17 03:41:22;;;;;;;17.95;11.13;;;;;;;0.83;100.00;99541.16;5010514;28;20087;-74
2024/01/17 03:43:48;;;;;;;19.75;12.27;;;;;;;0.46;100.00;99625.13;5008770;28;20030;-74
2024/01/17 03:46:13;;;;;;;17.40;11.63;;;;;;;0.83;100.00;99596.19;5010414;28;20033;-77
2024/01/17 03:48:40;;;;;;;17.77;11.45;;;;;;;0.90;100.00;99595.38;5010378;28;20481;-73
2024/01/17 03:51:05;;;;;;;16.83;11.15;;;;;;;1.24;100.00;99591.31;5009692;28;20096;-74
2024/01/17 03:53:31;;;;;;;18.02;11.95;;;;;;;0.80;100.00;99631.16;5008916;28;20042;-74
2024/01/17 03:55:56;;;;;;;17.35;11.25;;;;;;;0.73;100.00;99644.47;5008801;28;20036;-75
2024/01/17 03:58:22;;;;;;;16.77;11.38;;;;;;;0.95;100.00;99605.41;5010524;28;20034;-72
2024/01/17 04:00:47;;;;;;;16.58;11.38;;;;;;;0.72;100.00;99511.09;5007742;28;20373;-74
2024/01/17 04:03:13;;;;;;;15.02;10.95;;;;;;;0.81;100.00;99506.09;5009284;28;20053;-73
2024/01/17 04:05:40;;;;;;;17.33;11.85;;;;;;;0.65;100.00;99504.38;5010174;28;20041;-73
2024/01/17 04:08:06;;;;;;;19.73;12.55;;;;;;;0.77;100.00;99499.41;5008315;28;20037;-75
2024/01/17 04:10:31;;;;;;;21.30;13.60;;;;;;;0.59;100.00;99531.88;5009508;28;20085;-71
2024/01/17 04:12:58;;;;;;;22.38;14.30;;;;;;;0.47;100.00;99516.00;5007816;28;20037;-71
2024/01/17 04:15:23;;;;;;;11.88;8.50;;;;;;;4.62;100.00;99168.03;5008946;28;20476;-71
2024/01/17 04:17:49;;;;;;;20.90;13.60;;;;;;;2.32;100.00;99292.19;5008746;28;20068;-71
2024/01/17 04:20:14;;;;;;;25.58;17.63;;;;;;;0.68;100.00;99418.53;5007560;28;20057;-71
2024/01/17 04:22:40;;;;;;;25.58;17.08;;;;;;;0.59;100.00;99531.88;5011732;28;20115;-71
2024/01/17 04:25:06;;;;;;;26.60;16.88;;;;;;;0.71;100.00;99526.09;5029223;28;20462;-70
2024/01/17 04:27:31;;;;;;;24.00;15.88;;;;;;;0.74;100.00;99496.94;5006273;28;20029;-70
2024/01/17 04:29:58;;;;;;;30.65;19.13;;;;;;;1.03;100.00;99494.50;5026423;28;20187;-70
2024/01/17 04:32:24;;;;;;;33.28;21.67;;;;;;;0.56;100.00;99519.34;5012269;28;20038;-70
2024/01/17 04:34:50;;;;;;;34.20;20.63;;;;;;;0.88;100.00;99520.31;5026022;28;20411;-70
2024/01/17 04:37:16;;;;;;;29.80;18.60;;;;;;;0.76;100.00;99544.44;5011583;28;20025;-69
2024/01/17 04:39:41;;;;;;;36.40;22.73;;;;;;;0.92;100.00;99500.31;5010439;28;20557;-69
2024/01/17 04:42:07;;;;;;;47.50;29.48;;;;;;;0.70;100.00;99496.91;5025659;28;20124;-69
2024/01/17 04:44:33;;;;;;;41.80;27.27;;;;;;;1.01;100.00;99516.16;5025602;28;20037;-69
2024/01/17 04:46:59;;;;;;;42.30;26.98;;;;;;;0.83;100.00;99504.44;5026380;28;20041;-70
2024/01/17 04:49:27;;;;;;;41.08;27.20;;;;;;;0.88;100.00;99509.47;5011015;28;20037;-70
2024/01/17 04:51:56;;;;;;;40.22;25.88;;;;;;;0.86;100.00;99453.59;5025272;28;20033;-71
2024/01/17 04:54:23;;;;;;;40.22;25.25;;;;;;;0.62;100.00;99521.88;5013531;28;20470;-70
2024/01/17 04:56:49;;;;;;;40.50;24.95;;;;;;;0.63;100.00;99497.72;5011572;28;20030;-70
2024/01/17 04:59:15;;;;;;;34.25;23.70;;;;;;;0.55;100.00;99429.34;5025909;28;20033;-71
2024/01/17 05:01:40;;;;;;;40.83;24.30;;;;;;;0.51;100.00;99487.69;5025703;28;20048;-70
2024/01/17 05:04:07;;;;;;;44.25;27.58;;;;;;;0.50;100.00;99506.84;5016607;28;20048;-69
2024/01/17 05:06:33;;;;;;;41.53;26.80;;;;;;;0.65;100.00;99493.56;5030171;28;20477;-70
2024/01/17 05:08:59;;;;;;;47.25;26.48;;;;;;;-0.01;100.00;99459.09;5029700;28;20052;-69
2024/01/17 05:11:27;;;;;;;37.88;22.80;;;;;;;0.41;100.00;99555.94;5016034;28;20022;-69
2024/01/17 05:13:52;;;;;;;34.53;24.27;;;;;;;0.32;100.00;99544.22;5030597;28;20124;-70
2024/01/17 05:16:18;;;;;;;27.92;19.38;;;;;;;0.14;100.00;99499.13;5029676;28;20124;-68
2024/01/17 05:18:44;;;;;;;21.40;14.65;;;;;;;0.39;100.00;99502.63;5013478;28;20068;-70
2024/01/17 05:21:11;;;;;;;19.00;12.50;;;;;;;0.27;100.00;99503.41;5015765;28;20056;-68
2024/01/17 05:23:38;;;;;;;17.80;12.20;;;;;;;0.09;100.00;99457.47;5028854;28;20051;-69
2024/01/17 05:26:04;;;;;;;22.35;14.80;;;;;;;0.15;100.00;99483.34;5015009;28;20032;-69
2024/01/17 05:28:30;;;;;;;31.33;16.42;;;;;;;0.12;100.00;99455.00;5026889;28;20026;-68
2024/01/17 05:30:55;;;;;;;29.55;17.23;;;;;;;-0.01;100.00;99466.59;5029320;28;20037;-70
2024/01/17 05:33:21;;;;;;;25.30;15.27;;;;;;;-0.29;100.00;99428.13;5028528;28;20040;-70
2024/01/17 05:35:46;;;;;;;20.85;13.15;;;;;;;-0.37;100.00;99487.16;5029315;28;20369;-70
2024/01/17 05:38:12;;;;;;;20.52;12.63;;;;;;;-0.32;100.00;99490.50;5030501;28;21528;-70
2024/01/17 05:40:37;;;;;;;18.02;10.60;;;;;;;-0.20;100.00;99459.81;5030234;28;20450;-71
2024/01/17 05:43:03;;;;;;;14.75;10.57;;;;;;;-0.43;100.00;99398.91;5029546;28;20065;-69
2024/01/17 05:45:29;;;;;;;17.50;12.15;;;;;;;0.15;100.00;99397.56;5030568;28;20492;-71
2024/01/17 05:47:54;;;;;;;18.95;13.20;;;;;;;0.03;100.00;99395.00;5012505;28;20030;-69
2024/01/17 05:50:19;;;;;;;19.63;12.77;;;;;;;-0.63;100.00;99408.75;5030248;28;20391;-69
2024/01/17 05:52:45;;;;;;;23.48;13.73;;;;;;;0.07;100.00;99375.03;5011600;28;20052;-70
2024/01/17 05:55:12;;;;;;;25.10;14.95;;;;;;;-0.39;100.00;99413.94;5010597;28;20025;-70
2024/01/17 05:57:38;;;;;;;34.28;18.30;;;;;;;-0.85;100.00;99379.50;5029879;28;20033;-69
2024/01/17 06:00:09;;;;;;;45.33;22.00;;;;;;;-0.51;100.00;99380.56;5012029;28;20048;-70
2024/01/17 06:02:36;;;;;;;44.70;19.13;;;;;;;-0.36;100.00;99366.53;5029505;28;20047;-70
2024/01/17 06:05:02;;;;;;;49.22;20.80;;;;;;;-0.14;100.00;99350.00;5012910;28;20465;-70
2024/01/17 06:07:28;;;;;;;46.88;21.02;;;;;;;-0.03;100.00;99341.72;5030158;28;20040;-70
2024/01/17 06:09:54;;;;;;;41.55;20.13;;;;;;;-0.52;100.00;99251.63;5012945;28;20424;-70
2024/01/17 06:12:19;;;;;;;45.17;21.83;;;;;;;-0.12;100.00;99300.91;5030690;28;20033;-70
2024/01/17 06:14:45;;;;;;;41.47;20.92;;;;;;;-0.51;100.00;99209.22;5029267;28;20053;-70
2024/01/17 06:17:11;;;;;;;46.13;23.30;;;;;;;-0.09;100.00;99166.88;5013411;28;20033;-70
2024/01/17 06:19:36;;;;;;;39.42;22.85;;;;;;;0.49;100.00;99179.38;5030192;28;20475;-69
2024/01/17 06:22:02;;;;;;;50.00;24.85;;;;;;;1.76;100.00;98990.25;5030793;28;20036;-70
2024/01/17 06:24:28;;;;;;;41.25;21.88;;;;;;;3.18;100.00;98885.63;4995317;28;20076;-71
2024/01/17 06:26:53;;;;;;;39.15;23.30;;;;;;;3.67;100.00;98839.56;5030279;28;20120;-70
2024/01/17 06:29:18;;;;;;;64.95;31.50;;;;;;;4.16;100.00;98789.97;5030123;28;20025;-70
2024/01/17 06:31:44;;;;;;;52.85;28.40;;;;;;;4.85;100.00;98810.16;5030905;28;20037;-71
2024/01/17 06:34:09;;;;;;;40.08;23.08;;;;;;;4.01;100.00;98913.47;5012956;28;20492;-70
2024/01/17 06:36:35;;;;;;;50.72;27.35;;;;;;;3.05;100.00;98961.97;5030385;28;20041;-69
2024/01/17 06:39:00;;;;;;;71.18;37.03;;;;;;;4.43;100.00;98836.31;5030009;28;20450;-71
2024/01/17 06:41:26;;;;;;;85.72;46.92;;;;;;;5.54;100.00;98759.66;5030462;28;20037;-70
2024/01/17 06:43:51;;;;;;;95.47;53.13;;;;;;;5.29;100.00;98896.38;5028628;28;20037;-70
2024/01/17 06:46:17;;;;;;;77.40;43.95;;;;;;;6.16;100.00;98833.59;5030461;28;20048;-70
2024/01/17 06:48:42;;;;;;;70.45;44.95;;;;;;;6.30;100.00;98897.91;5029933;28;20029;-71
2024/01/17 06:51:08;;;;;;;53.40;34.33;;;;;;;5.81;100.00;98993.38;5030359;28;20116;-71
2024/01/17 06:53:34;;;;;;;43.05;30.13;;;;;;;6.76;100.00;98856.97;5030307;28;20107;-73
2024/01/17 06:56:00;;;;;;;43.80;31.20;;;;;;;6.07;100.00;98998.63;5030562;28;20095;-70
2024/01/17 06:58:25;;;;;;;104.82;60.13;;;;;;;5.26;100.00;99132.41;5012998;28;20820;-70
2024/01/17 07:00:51;;;;;;;59.10;37.17;;;;;;;6.19;100.00;98980.66;5012526;28;20037;-71
2024/01/17 07:03:16;;;;;;;49.13;34.35;;;;;;;6.18;100.00;99038.72;5030619;28;20412;-74
2024/01/17 07:05:42;;;;;;;32.40;22.83;;;;;;;5.71;100.00;98991.94;5030281;28;20033;-71
2024/01/17 07:08:08;;;;;;;26.17;17.60;;;;;;;6.26;100.00;98949.31;5030663;28;20392;-70
2024/01/17 07:10:35;;;;;;;26.13;20.65;;;;;;;6.98;100.00;98831.00;5012197;28;20107;-73
2024/01/17 07:13:01;;;;;;;32.22;23.80;;;;;;;6.59;100.00;98791.88;5030740;28;20033;-70
2024/01/17 07:15:26;;;;;;;37.97;25.67;;;;;;;6.77;100.00;98838.44;5011904;28;20029;-71
2024/01/17 07:17:52;;;;;;;29.10;22.13;;;;;;;7.08;100.00;98727.94;5012679;28;20040;-71
2024/01/17 07:20:17;;;;;;;35.10;24.70;;;;;;;6.38;100.00;98825.31;5012272;28;20559;-71
2024/01/17 07:22:44;;;;;;;43.55;32.92;;;;;;;4.45;100.00;98980.50;5030130;28;20579;-70
2024/01/17 07:25:10;;;;;;;35.60;27.17;;;;;;;4.15;100.00;98912.34;5028808;28;20033;-70
2024/01/17 07:27:38;;;;;;;35.33;24.13;;;;;;;4.24;100.00;98931.44;5011942;28;20026;-69
2024/01/17 07:30:04;;;;;;;40.88;27.35;;;;;;;4.43;100.00;98897.53;5029828;28;20025;-70
2024/01/17 07:32:29;;;;;;;45.53;29.52;;;;;;;4.38;100.00;98896.78;5028560;28;20029;-70
2024/01/17 07:34:54;;;;;;;39.22;26.02;;;;;;;3.73;100.00;98952.50;5011343;28;20462;-70
2024/01/17 07:37:20;;;;;;;25.65;18.75;;;;;;;3.83;100.00;98939.75;5029438;28;20045;-70
2024/01/17 07:39:45;;;;;;;26.38;20.80;;;;;;;3.96;100.00;98930.31;5029368;28;20869;-70
2024/01/17 07:42:11;;;;;;;46.03;28.05;;;;;;;4.46;100.00;98905.00;5029509;28;20025;-70
2024/01/17 07:44:36;;;;;;;34.63;24.80;;;;;;;4.49;100.00;98887.34;5028813;28;20435;-70
2024/01/17 07:47:02;;;;;;;60.25;32.67;;;;;;;3.66;100.00;98901.56;5011874;28;20416;-70
2024/01/17 07:49:28;;;;;;;52.10;35.75;;;;;;;4.61;100.00;98871.97;5028842;28;20053;-70
2024/01/17 07:51:54;;;;;;;55.28;38.67;;;;;;;4.20;100.00;98872.00;5011568;28;20048;-70
2024/01/17 07:54:19;;;;;;;59.83;42.85;;;;;;;3.77;100.00;98887.09;5028888;28;20385;-70
2024/01/17 07:56:44;;;;;;;62.33;45.38;;;;;;;3.93;100.00;98880.94;5029187;28;20494;-70
2024/01/17 07:59:10;;;;;;;66.60;48.75;;;;;;;4.29;100.00;98891.94;5028738;28;20030;-73
2024/01/17 08:01:35;;;;;;;64.32;45.05;;;;;;;3.95;100.00;98923.63;5011051;28;20029;-70
2024/01/17 08:04:05;;;;;;;70.13;44.97;;;;;;;4.43;100.00;98829.59;5028834;28;20041;-71
2024/01/17 08:06:30;;;;;;;66.68;45.42;;;;;;;4.97;100.00;98818.22;5010004;28;20078;-70
2024/01/17 08:08:56;;;;;;;80.88;54.25;;;;;;;4.75;100.00;98851.53;5028802;28;20480;-70
2024/01/17 08:11:21;;;;;;;77.28;51.83;;;;;;;4.34;100.00;98840.69;5009628;28;20030;-74
2024/01/17 08:13:47;;;;;;;77.90;53.05;;;;;;;4.42;100.00;98822.91;5028584;28;20435;-70
2024/01/17 08:16:12;;;;;;;91.03;61.60;;;;;;;4.70;100.00;98795.41;5011004;28;20040;-70
2024/01/17 08:18:39;;;;;;;75.60;49.75;;;;;;;4.56;100.00;98866.19;5028847;28;20518;-70
2024/01/17 08:21:04;;;;;;;70.50;47.72;;;;;;;4.62;100.00;98858.50;5028319;28;20108;-70
2024/01/17 08:23:30;;;;;;;82.05;53.83;;;;;;;4.60;100.00;98861.91;5028611;28;20116;-71
2024/01/17 08:25:55;;;;;;;85.88;54.40;;;;;;;4.99;100.00;98801.41;5028000;28;20033;-71
2024/01/17 08:28:21;;;;;;;63.33;39.35;;;;;;;4.74;100.00;98825.53;5010806;28;20108;-70
2024/01/17 08:30:46;;;;;;;55.75;37.13;;;;;;;4.58;100.00;98851.88;5028605;28;20037;-70
2024/01/17 08:33:11;;;;;;;48.60;32.58;;;;;;;5.05;100.00;98758.44;5010299;28;20033;-69
2024/01/17 08:35:37;;;;;;;42.60;27.77;;;;;;;4.62;100.00;98848.44;5009833;28;20057;-70
2024/01/17 08:38:03;;;;;;;41.70;27.92;;;;;;;5.04;100.00;98724.06;5028123;28;20041;-71
2024/01/17 08:40:28;;;;;;;40.25;23.55;;;;;;;4.99;100.00;98746.00;5028414;28;20025;-70
2024/01/17 08:42:54;;;;;;;33.45;21.77;;;;;;;5.44;100.00;98753.22;5028347;28;20039;-71
2024/01/17 08:45:19;;;;;;;33.10;23.17;;;;;;;5.27;100.00;98734.34;5027903;28;20038;-72
2024/01/17 08:47:45;;;;;;;36.42;23.42;;;;;;;4.79;100.00;98801.09;5010393;28;20041;-70
2024/01/17 08:50:14;;;;;;;36.95;25.83;;;;;;;5.40;100.00;98734.03;5009983;28;20480;-70
2024/01/17 08:52:39;;;;;;;39.00;25.92;;;;;;;5.91;100.00;98704.84;5028276;28;20061;-70
2024/01/17 08:55:08;;;;;;;38.80;26.10;;;;;;;5.67;100.00;98729.03;5027828;28;20115;-70
2024/01/17 08:57:37;;;;;;;41.40;28.55;;;;;;;5.29;100.00;98739.34;5010529;28;20029;-70
2024/01/17 09:00:06;;;;;;;35.10;26.63;;;;;;;5.43;100.00;98772.56;5025113;28;20033;-70
2024/01/17 09:02:32;;;;;;;38.50;26.95;;;;;;;5.82;100.00;98728.56;5028185;28;20036;-70
2024/01/17 09:04:57;;;;;;;40.65;27.38;;;;;;;5.66;100.00;98717.31;5010364;28;20033;-70
2024/01/17 09:07:23;;;;;;;47.15;32.85;;;;;;;5.49;100.00;98757.25;5027598;28;20388;-70
2024/01/17 09:09:49;;;;;;;48.60;33.08;;;;;;;5.86;100.00;98752.06;5027816;28;20072;-70
2024/01/17 09:12:17;;;;;;;40.58;29.08;;;;;;;5.92;100.00;98747.66;5027590;28;20064;-71
2024/01/17 09:14:43;;;;;;;26.88;19.80;;;;;;;5.99;100.00;98733.16;5010399;28;20025;-71
2024/01/17 09:17:09;;;;;;;19.67;14.35;;;;;;;5.66;100.00;98703.88;5027232;28;20083;-71
2024/01/17 09:19:35;;;;;;;38.05;20.70;;;;;;;5.89;100.00;98794.81;5027527;28;20029;-70
2024/01/17 09:22:00;;;;;;;24.10;15.55;;;;;;;5.91;100.00;98798.13;5009536;28;20463;-71
2024/01/17 09:24:26;;;;;;;22.17;16.60;;;;;;;6.10;100.00;98784.94;5026559;28;20054;-71
2024/01/17 09:26:52;;;;;;;25.15;18.38;;;;;;;6.05;100.00;98731.31;5010540;28;20422;-70
2024/01/17 09:29:18;;;;;;;25.75;17.50;;;;;;;6.02;100.00;98741.47;5027041;28;20034;-70
2024/01/17 09:31:43;;;;;;;20.75;15.75;;;;;;;6.29;100.00;98752.44;5028088;28;20021;-70
2024/01/17 09:34:09;;;;;;;22.58;15.32;;;;;;;6.41;100.00;98751.22;5027497;28;20092;-71
2024/01/17 09:36:34;;;;;;;18.58;11.00;;;;;;;6.11;100.00;98720.19;5026794;28;20474;-71
2024/01/17 09:39:00;;;;;;;21.63;11.52;;;;;;;6.34;100.00;98729.59;5027898;28;20017;-70
2024/01/17 09:41:25;;;;;;;19.15;12.35;;;;;;;6.37;100.00;98686.56;5028120;28;20561;-69
2024/01/17 09:43:51;;;;;;;15.73;11.50;;;;;;;6.27;100.00;98681.00;5027627;28;20029;-68
2024/01/17 09:46:16;;;;;;;18.40;12.35;;;;;;;6.33;100.00;98716.13;5027073;28;20029;-68
2024/01/17 09:48:42;;;;;;;15.32;10.68;;;;;;;6.51;100.00;98689.50;5010966;28;20034;-68
2024/01/17 09:51:10;;;;;;;12.60;8.75;;;;;;;6.42;100.00;98647.69;5031040;28;20140;-71
2024/01/17 09:53:37;;;;;;;13.27;8.65;;;;;;;6.14;100.00;98665.41;5031274;28;20108;-67
2024/01/17 09:56:02;;;;;;;12.35;7.90;;;;;;;6.38;100.00;98645.34;5030622;28;20490;-69
2024/01/17 09:58:35;;;;;;;9.27;7.65;;;;;;;6.58;100.00;98650.53;5031182;28;20061;-70
2024/01/17 10:01:04;;;;;;;13.70;7.95;;;;;;;6.70;100.00;98602.97;5012106;28;20029;-69
2024/01/17 10:03:30;;;;;;;8.60;6.22;;;;;;;7.47;100.00;98568.97;5031260;28;20025;-70
2024/01/17 10:05:56;;;;;;;8.15;5.55;;;;;;;7.30;100.00;98578.91;5030853;28;20044;-69
2024/01/17 10:08:21;;;;;;;8.02;5.60;;;;;;;6.94;100.00;98550.78;5011708;28;20032;-70
2024/01/17 10:10:47;;;;;;;9.00;6.43;;;;;;;7.07;100.00;98606.75;5012724;28;20045;-69
2024/01/17 10:13:12;;;;;;;8.40;5.90;;;;;;;7.47;100.00;98483.88;5031236;28;20021;-69
2024/01/17 10:15:42;;;;;;;9.95;5.80;;;;;;;7.38;100.00;98496.03;5030072;28;20030;-70
2024/01/17 10:18:09;;;;;;;9.10;6.55;;;;;;;7.08;100.00;98591.53;5012514;28;20021;-69
2024/01/17 10:20:35;;;;;;;11.50;6.20;;;;;;;7.48;100.00;98530.19;5030725;28;20041;-69
2024/01/17 10:23:00;;;;;;;7.93;5.05;;;;;;;7.73;100.00;98503.88;5031311;28;20045;-69
2024/01/17 10:25:26;;;;;;;7.75;5.07;;;;;;;7.02;100.00;98558.91;5013178;28;20029;-69
2024/01/17 10:27:51;;;;;;;13.60;7.45;;;;;;;7.43;100.00;98516.91;5029348;28;20071;-68
2024/01/17 10:30:18;;;;;;;9.80;4.80;;;;;;;7.96;100.00;98474.28;5030593;28;20029;-70
2024/01/17 10:32:44;;;;;;;11.45;6.10;;;;;;;7.95;100.00;98473.47;4678019;28;9999765;-69
2024/01/17 10:35:11;;;;;;;9.60;5.35;;;;;;;8.08;100.00;98461.94;5027744;28;20484;-69
2024/01/17 10:37:37;;;;;;;10.55;8.20;;;;;;;7.72;100.00;98438.19;5026967;28;20033;-69
2024/01/17 10:40:11;;;;;;;13.82;5.55;;;;;;;7.80;100.00;98497.66;5027355;28;20419;-70
2024/01/17 10:42:37;;;;;;;8.15;5.10;;;;;;;7.59;100.00;98483.38;5027751;28;20033;-69
2024/01/17 10:45:05;;;;;;;7.57;5.47;;;;;;;7.78;100.00;98481.72;5026713;28;20094;-71
2024/01/17 10:47:31;;;;;;;12.85;7.30;;;;;;;8.06;100.00;98476.34;5027459;28;20037;-71
2024/01/17 10:49:56;;;;;;;10.82;7.63;;;;;;;8.02;100.00;98416.66;5027996;28;20025;-70
2024/01/17 10:52:25;;;;;;;10.55;6.13;;;;;;;7.62;100.00;98452.94;5027238;28;20043;-70
2024/01/17 10:54:52;;;;;;;7.15;5.55;;;;;;;7.90;100.00;98457.66;5012267;28;20172;-69
2024/01/17 10:57:21;;;;;;;9.48;6.53;;;;;;;7.82;100.00;98455.44;5011454;28;20380;-70
2024/01/17 10:59:50;;;;;;;9.73;5.78;;;;;;;7.62;100.00;98473.16;5011158;28;20030;-69
2024/01/17 11:02:21;;;;;;;9.43;6.88;;;;;;;7.76;100.00;98399.25;5029795;28;20038;-69
2024/01/17 11:04:55;;;;;;;10.48;7.30;;;;;;;8.30;100.00;98391.81;5030174;28;20033;-69
2024/01/17 11:07:22;;;;;;;14.43;9.98;;;;;;;7.90;100.00;98366.59;5030259;28;20029;-70
2024/01/17 11:09:49;;;;;;;30.50;21.42;;;;;;;8.52;100.00;98346.09;5029975;28;20029;-70
2024/01/17 11:12:16;;;;;;;25.33;14.77;;;;;;;8.14;100.00;98340.19;5012100;28;20103;-70
2024/01/17 11:14:42;;;;;;;12.18;9.13;;;;;;;8.48;100.00;98353.00;5011864;28;20423;-69